createdAt,value
2022-09-28T00:00:04.353Z,974.04
2022-09-28T00:01:04.343Z,974.08
2022-09-28T00:02:04.486Z,974.02
2022-09-28T00:03:04.925Z,974.01
2022-09-28T00:04:04.345Z,974.03
2022-09-28T00:05:04.341Z,973.99
2022-09-28T00:06:04.301Z,973.94
2022-09-28T00:07:04.315Z,973.87
2022-09-28T00:08:04.296Z,973.93
2022-09-28T00:09:04.293Z,973.84
2022-09-28T00:10:04.272Z,973.81
2022-09-28T00:11:04.269Z,973.87
2022-09-28T00:12:04.263Z,973.77
2022-09-28T00:13:04.251Z,973.69
2022-09-28T00:14:05.956Z,973.69
2022-09-28T00:15:04.246Z,973.67
2022-09-28T00:16:04.298Z,973.64
2022-09-28T00:17:04.220Z,973.65
2022-09-28T00:18:04.234Z,973.69
2022-09-28T00:19:04.191Z,973.67
2022-09-28T00:20:04.186Z,973.64
2022-09-28T00:21:04.185Z,973.60
2022-09-28T00:22:04.173Z,973.60
2022-09-28T00:23:04.173Z,973.58
2022-09-28T00:24:04.162Z,973.57
2022-09-28T00:25:04.161Z,973.55
2022-09-28T00:26:04.138Z,973.52
2022-09-28T00:27:04.145Z,973.51
2022-09-28T00:28:04.127Z,973.47
2022-09-28T00:29:04.126Z,973.45
2022-09-28T00:30:53.718Z,973.41
2022-09-28T00:31:54.869Z,973.38
2022-09-28T00:32:54.797Z,973.36
2022-09-28T00:33:54.797Z,973.32
2022-09-28T00:34:54.780Z,973.29
2022-09-28T00:35:55.680Z,973.30
2022-09-28T00:36:54.779Z,973.30
2022-09-28T00:37:54.760Z,973.28
2022-09-28T00:38:54.757Z,973.34
2022-09-28T00:39:54.737Z,973.38
2022-09-28T00:40:54.818Z,973.30
2022-09-28T00:41:56.669Z,973.32
2022-09-28T00:42:54.727Z,973.29
2022-09-28T00:43:54.705Z,973.23
2022-09-28T00:44:54.701Z,973.17
2022-09-28T00:45:54.862Z,973.13
2022-09-28T00:46:54.684Z,973.11
2022-09-28T00:47:54.686Z,973.06
2022-09-28T00:48:54.672Z,973.11
2022-09-28T00:49:55.665Z,973.07
2022-09-28T00:50:54.652Z,973.05
2022-09-28T00:51:54.638Z,973.09
2022-09-28T00:52:55.667Z,973.09
2022-09-28T00:53:54.624Z,973.10
2022-09-28T00:54:54.627Z,973.09
2022-09-28T00:55:54.611Z,973.14
2022-09-28T00:56:54.604Z,973.12
2022-09-28T00:57:54.595Z,973.13
2022-09-28T00:58:55.612Z,973.12
2022-09-28T00:59:54.581Z,973.10
2022-09-28T01:00:54.607Z,973.12
2022-09-28T01:01:54.586Z,973.07
2022-09-28T01:02:54.569Z,973.05
2022-09-28T01:03:54.548Z,973.09
2022-09-28T01:04:54.546Z,972.98
2022-09-28T01:05:54.540Z,972.94
2022-09-28T01:06:54.521Z,972.94
2022-09-28T01:07:55.161Z,972.96
2022-09-28T01:08:54.506Z,972.92
2022-09-28T01:09:54.502Z,972.91
2022-09-28T01:10:54.492Z,972.86
2022-09-28T01:11:54.479Z,972.82
2022-09-28T01:12:54.476Z,972.81
2022-09-28T01:13:54.463Z,972.81
2022-09-28T01:14:54.465Z,972.75
2022-09-28T01:15:54.483Z,972.80
2022-09-28T01:16:54.438Z,972.75
2022-09-28T01:17:56.158Z,972.73
2022-09-28T01:18:54.424Z,972.68
2022-09-28T01:19:54.423Z,972.67
2022-09-28T01:20:54.413Z,972.69
2022-09-28T01:21:54.404Z,972.71
2022-09-28T01:22:54.392Z,972.63
2022-09-28T01:23:54.385Z,972.69
2022-09-28T01:24:54.392Z,972.72
2022-09-28T01:25:54.373Z,972.65
2022-09-28T01:26:54.362Z,972.66
2022-09-28T01:27:54.353Z,972.64
2022-09-28T01:28:55.093Z,972.65
2022-09-28T01:29:55.091Z,972.64
2022-09-28T01:30:54.337Z,972.63
2022-09-28T01:31:54.379Z,972.63
2022-09-28T01:32:54.315Z,972.65
2022-09-28T01:33:54.305Z,972.61
2022-09-28T01:34:54.305Z,972.58
2022-09-28T01:35:54.291Z,972.58
2022-09-28T01:36:54.284Z,972.56
2022-09-28T01:37:54.269Z,972.59
2022-09-28T01:38:54.267Z,972.59
2022-09-28T01:39:54.259Z,972.53
2022-09-28T01:40:54.306Z,972.55
2022-09-28T01:41:54.240Z,972.50
2022-09-28T01:42:54.232Z,972.53
2022-09-28T01:43:54.221Z,972.48
2022-09-28T01:44:54.227Z,972.41
2022-09-28T01:45:54.270Z,972.45
2022-09-28T01:46:54.214Z,972.46
2022-09-28T01:47:54.189Z,972.34
2022-09-28T01:48:54.184Z,972.49
2022-09-28T01:49:54.176Z,972.41
2022-09-28T01:50:55.093Z,972.36
2022-09-28T01:51:54.166Z,972.31
2022-09-28T01:52:54.155Z,972.38
2022-09-28T01:53:54.142Z,972.32
2022-09-28T01:54:54.134Z,972.24
2022-09-28T01:55:54.679Z,972.31
2022-09-28T01:56:54.116Z,972.32
2022-09-28T01:57:54.116Z,972.30
2022-09-28T01:58:54.102Z,972.28
2022-09-28T01:59:54.087Z,972.31
2022-09-28T02:00:54.168Z,972.28
2022-09-28T02:01:54.206Z,972.22
2022-09-28T02:02:54.065Z,972.23
2022-09-28T02:03:54.071Z,972.23
2022-09-28T02:04:54.051Z,972.20
2022-09-28T02:05:54.047Z,972.24
2022-09-28T02:06:54.047Z,972.23
2022-09-28T02:07:54.032Z,972.21
2022-09-28T02:08:54.019Z,972.19
2022-09-28T02:09:55.013Z,972.12
2022-09-28T02:10:54.002Z,972.12
2022-09-28T02:11:54.000Z,972.15
2022-09-28T02:12:55.611Z,972.15
2022-09-28T02:13:53.982Z,972.09
2022-09-28T02:14:53.974Z,972.08
2022-09-28T02:15:54.023Z,972.11
2022-09-28T02:16:53.957Z,972.08
2022-09-28T02:17:53.953Z,972.09
2022-09-28T02:18:53.938Z,972.06
2022-09-28T02:19:53.929Z,972.02
2022-09-28T02:20:53.921Z,972.08
2022-09-28T02:21:53.914Z,972.07
2022-09-28T02:22:55.688Z,971.99
2022-09-28T02:23:53.906Z,971.97
2022-09-28T02:24:53.888Z,971.99
2022-09-28T02:25:53.882Z,971.91
2022-09-28T02:26:55.595Z,972.01
2022-09-28T02:27:53.862Z,971.92
2022-09-28T02:28:54.678Z,971.93
2022-09-28T02:29:54.682Z,971.86
2022-09-28T02:30:53.844Z,971.90
2022-09-28T02:31:53.924Z,971.88
2022-09-28T02:32:53.832Z,971.81
2022-09-28T02:33:53.823Z,971.87
2022-09-28T02:34:53.811Z,971.79
2022-09-28T02:35:53.800Z,971.83
2022-09-28T02:36:53.805Z,971.82
2022-09-28T02:37:53.782Z,971.87
2022-09-28T02:38:53.781Z,971.82
2022-09-28T02:39:53.802Z,971.77
2022-09-28T02:40:53.825Z,971.74
2022-09-28T02:41:53.762Z,971.75
2022-09-28T02:42:54.681Z,971.77
2022-09-28T02:43:53.736Z,971.76
2022-09-28T02:44:53.727Z,971.72
2022-09-28T02:45:53.783Z,971.72
2022-09-28T02:46:53.709Z,971.75
2022-09-28T02:47:53.701Z,971.71
2022-09-28T02:49:10.577Z,971.70
2022-09-28T02:49:55.686Z,971.69
2022-09-28T02:50:53.675Z,971.59
2022-09-28T02:51:54.606Z,971.61
2022-09-28T02:52:53.669Z,971.61
2022-09-28T02:53:53.660Z,971.60
2022-09-28T02:54:53.645Z,971.57
2022-09-28T02:55:53.632Z,971.57
2022-09-28T02:56:56.203Z,971.54
2022-09-28T02:57:53.623Z,971.50
2022-09-28T02:58:53.610Z,971.59
2022-09-28T02:59:53.613Z,971.50
2022-09-28T03:00:53.651Z,971.48
2022-09-28T03:01:53.616Z,971.40
2022-09-28T03:02:53.578Z,971.49
2022-09-28T03:03:53.574Z,971.44
2022-09-28T03:04:53.570Z,971.42
2022-09-28T03:05:55.187Z,971.40
2022-09-28T03:06:53.551Z,971.47
2022-09-28T03:07:53.544Z,971.40
2022-09-28T03:08:53.530Z,971.38
2022-09-28T03:09:53.533Z,971.39
2022-09-28T03:10:53.525Z,971.42
2022-09-28T03:11:53.529Z,971.41
2022-09-28T03:12:53.500Z,971.36
2022-09-28T03:13:53.491Z,971.34
2022-09-28T03:14:53.484Z,971.33
2022-09-28T03:15:53.621Z,971.38
2022-09-28T03:16:53.473Z,971.36
2022-09-28T03:17:53.461Z,971.34
2022-09-28T03:18:53.455Z,971.35
2022-09-28T03:19:53.446Z,971.38
2022-09-28T03:20:53.442Z,971.29
2022-09-28T03:21:53.434Z,971.33
2022-09-28T03:23:19.759Z,971.30
2022-09-28T03:23:55.417Z,971.29
2022-09-28T03:24:53.413Z,971.24
2022-09-28T03:25:53.409Z,971.20
2022-09-28T03:26:54.116Z,971.27
2022-09-28T03:27:53.384Z,971.17
2022-09-28T03:28:53.373Z,971.12
2022-09-28T03:29:53.364Z,971.20
2022-09-28T03:30:53.355Z,971.16
2022-09-28T03:31:53.419Z,971.21
2022-09-28T03:32:53.339Z,971.18
2022-09-28T03:33:53.334Z,971.17
2022-09-28T03:34:53.323Z,971.18
2022-09-28T03:35:53.322Z,971.13
2022-09-28T03:36:53.318Z,971.16
2022-09-28T03:37:53.306Z,971.18
2022-09-28T03:38:53.286Z,971.15
2022-09-28T03:39:53.286Z,971.14
2022-09-28T03:40:53.304Z,971.18
2022-09-28T03:41:54.213Z,971.17
2022-09-28T03:42:53.257Z,971.18
2022-09-28T03:43:53.250Z,971.19
2022-09-28T03:44:53.242Z,971.12
2022-09-28T03:45:53.273Z,971.10
2022-09-28T03:46:53.233Z,971.06
2022-09-28T03:47:53.230Z,971.05
2022-09-28T03:48:53.208Z,971.01
2022-09-28T03:49:53.207Z,970.99
2022-09-28T03:50:53.191Z,970.98
2022-09-28T03:51:53.186Z,970.97
2022-09-28T03:52:53.189Z,971.00
2022-09-28T03:53:53.168Z,971.03
2022-09-28T03:54:53.174Z,970.99
2022-09-28T03:55:53.156Z,970.99
2022-09-28T03:56:53.134Z,970.96
2022-09-28T03:57:54.134Z,970.96
2022-09-28T03:58:53.128Z,970.96
2022-09-28T03:59:53.625Z,970.97
2022-09-28T04:00:53.198Z,970.92
2022-09-28T04:01:54.887Z,970.98
2022-09-28T04:02:53.086Z,970.92
2022-09-28T04:03:54.096Z,970.94
2022-09-28T04:04:53.093Z,970.94
2022-09-28T04:05:54.085Z,970.89
2022-09-28T04:06:53.067Z,970.88
2022-09-28T04:07:53.054Z,970.85
2022-09-28T04:08:53.057Z,970.86
2022-09-28T04:09:53.044Z,970.80
2022-09-28T04:10:53.029Z,970.81
2022-09-28T04:12:03.960Z,970.75
2022-09-28T04:12:55.013Z,970.75
2022-09-28T04:13:53.009Z,970.76
2022-09-28T04:14:53.005Z,970.80
2022-09-28T04:15:52.992Z,970.70
2022-09-28T04:16:53.005Z,970.78
2022-09-28T04:17:52.981Z,970.84
2022-09-28T04:18:52.968Z,970.82
2022-09-28T04:19:52.981Z,970.78
2022-09-28T04:20:52.958Z,970.77
2022-09-28T04:21:52.949Z,970.77
2022-09-28T04:22:52.938Z,970.79
2022-09-28T04:23:52.934Z,970.78
2022-09-28T04:24:52.934Z,970.78
2022-09-28T04:25:52.935Z,970.82
2022-09-28T04:26:52.909Z,970.88
2022-09-28T04:27:52.919Z,970.81
2022-09-28T04:28:52.890Z,970.81
2022-09-28T04:29:52.879Z,970.84
2022-09-28T04:30:52.885Z,970.82
2022-09-28T04:31:52.947Z,970.77
2022-09-28T04:32:52.858Z,970.81
2022-09-28T04:33:52.848Z,970.81
2022-09-28T04:34:52.840Z,970.75
2022-09-28T04:35:52.837Z,970.77
2022-09-28T04:36:52.839Z,970.82
2022-09-28T04:37:52.814Z,970.82
2022-09-28T04:38:54.701Z,970.79
2022-09-28T04:39:52.810Z,970.82
2022-09-28T04:40:56.773Z,970.79
2022-09-28T04:41:52.786Z,970.80
2022-09-28T04:42:52.775Z,970.78
2022-09-28T04:43:52.770Z,970.78
2022-09-28T04:44:52.767Z,970.80
2022-09-28T04:45:52.782Z,970.77
2022-09-28T04:46:53.635Z,970.78
2022-09-28T04:47:52.739Z,970.77
2022-09-28T04:48:52.730Z,970.79
2022-09-28T04:49:52.730Z,970.85
2022-09-28T04:51:59.610Z,970.73
2022-09-28T04:52:59.597Z,970.79
2022-09-28T04:54:01.496Z,970.84
2022-09-28T04:55:01.699Z,970.78
2022-09-28T04:56:01.511Z,970.82
2022-09-28T04:57:00.677Z,970.81
2022-09-28T04:58:00.685Z,970.83
2022-09-28T04:59:02.431Z,970.81
2022-09-28T05:00:00.696Z,970.84
2022-09-28T05:01:00.728Z,970.77
2022-09-28T05:02:00.681Z,970.83
2022-09-28T05:03:00.635Z,970.81
2022-09-28T05:04:00.627Z,970.82
2022-09-28T05:05:00.637Z,970.83
2022-09-28T05:06:00.607Z,970.83
2022-09-28T05:07:02.514Z,970.84
2022-09-28T05:08:00.586Z,970.83
2022-09-28T05:09:00.568Z,970.87
2022-09-28T05:10:00.568Z,970.88
2022-09-28T05:11:00.567Z,970.84
2022-09-28T05:12:00.557Z,970.83
2022-09-28T05:13:00.549Z,970.83
2022-09-28T05:14:01.382Z,970.85
2022-09-28T05:15:00.521Z,970.88
2022-09-28T05:16:05.166Z,970.89
2022-09-28T05:17:01.671Z,970.91
2022-09-28T05:18:00.504Z,970.90
2022-09-28T05:19:00.503Z,970.86
2022-09-28T05:20:00.493Z,970.89
2022-09-28T05:21:00.522Z,970.92
2022-09-28T05:22:00.482Z,970.89
2022-09-28T05:23:00.477Z,970.91
2022-09-28T05:24:01.011Z,970.96
2022-09-28T05:25:05.024Z,970.93
2022-09-28T05:26:23.461Z,970.89
2022-09-28T05:27:00.446Z,970.95
2022-09-28T05:28:00.453Z,970.99
2022-09-28T05:29:00.419Z,970.86
2022-09-28T05:30:00.427Z,970.93
2022-09-28T05:31:00.436Z,970.91
2022-09-28T05:32:00.452Z,970.94
2022-09-28T05:33:00.392Z,970.93
2022-09-28T05:34:00.381Z,970.95
2022-09-28T05:35:02.936Z,970.94
2022-09-28T05:36:01.976Z,970.96
2022-09-28T05:37:47.503Z,970.94
2022-09-28T05:38:49.077Z,970.96
2022-09-28T05:39:47.448Z,971.00
2022-09-28T05:40:47.522Z,970.89
2022-09-28T05:41:48.081Z,970.98
2022-09-28T05:42:47.451Z,970.93
2022-09-28T05:43:48.513Z,970.96
2022-09-28T05:44:48.569Z,970.96
2022-09-28T05:45:52.830Z,970.94
2022-09-28T05:46:50.506Z,970.99
2022-09-28T05:47:48.493Z,970.99
2022-09-28T05:48:48.478Z,970.96
2022-09-28T05:49:48.498Z,970.93
2022-09-28T05:50:48.458Z,970.99
2022-09-28T05:51:48.697Z,971.00
2022-09-28T05:52:51.176Z,970.99
2022-09-28T05:53:49.432Z,970.97
2022-09-28T05:54:48.432Z,971.02
2022-09-28T05:55:48.440Z,971.05
2022-09-28T05:56:48.418Z,970.98
2022-09-28T05:57:48.413Z,971.03
2022-09-28T05:58:48.412Z,971.04
2022-09-28T05:59:48.400Z,971.10
2022-09-28T06:00:48.426Z,971.05
2022-09-28T06:01:48.372Z,971.11
2022-09-28T06:02:48.415Z,971.08
2022-09-28T06:03:48.364Z,971.07
2022-09-28T06:04:49.091Z,971.11
2022-09-28T06:05:48.343Z,971.12
2022-09-28T06:06:48.369Z,971.12
2022-09-28T06:07:48.328Z,971.14
2022-09-28T06:08:48.319Z,971.20
2022-09-28T06:09:48.320Z,971.19
2022-09-28T06:10:48.311Z,971.19
2022-09-28T06:11:48.316Z,971.20
2022-09-28T06:12:48.292Z,971.17
2022-09-28T06:13:48.304Z,971.29
2022-09-28T06:14:48.275Z,971.24
2022-09-28T06:15:48.274Z,971.20
2022-09-28T06:16:48.307Z,971.22
2022-09-28T06:17:48.268Z,971.22
2022-09-28T06:18:48.237Z,971.24
2022-09-28T06:19:48.262Z,971.25
2022-09-28T06:20:48.259Z,971.21
2022-09-28T06:21:48.219Z,971.20
2022-09-28T06:22:48.204Z,971.22
2022-09-28T06:23:49.373Z,971.28
2022-09-28T06:24:50.106Z,971.30
2022-09-28T06:25:48.198Z,971.32
2022-09-28T06:26:48.197Z,971.34
2022-09-28T06:27:48.184Z,971.40
2022-09-28T06:28:48.164Z,971.37
2022-09-28T06:29:48.154Z,971.37
2022-09-28T06:30:48.296Z,971.39
2022-09-28T06:31:48.695Z,971.42
2022-09-28T06:32:48.157Z,971.40
2022-09-28T06:33:48.121Z,971.43
2022-09-28T06:34:50.695Z,971.40
2022-09-28T06:35:48.108Z,971.47
2022-09-28T06:36:48.095Z,971.41
2022-09-28T06:37:48.114Z,971.47
2022-09-28T06:38:48.083Z,971.51
2022-09-28T06:39:48.083Z,971.50
2022-09-28T06:40:48.164Z,971.57
2022-09-28T06:41:48.063Z,971.48
2022-09-28T06:42:48.055Z,971.49
2022-09-28T06:43:48.242Z,971.55
2022-09-28T06:44:48.036Z,971.50
2022-09-28T06:45:48.045Z,971.50
2022-09-28T06:46:48.024Z,971.47
2022-09-28T06:47:48.027Z,971.53
2022-09-28T06:48:49.016Z,971.51
2022-09-28T06:49:48.017Z,971.50
2022-09-28T06:50:47.990Z,971.53
2022-09-28T06:51:47.977Z,971.56
2022-09-28T06:52:49.673Z,971.54
2022-09-28T06:53:47.965Z,971.53
2022-09-28T06:54:47.978Z,971.51
2022-09-28T06:55:47.949Z,971.53
2022-09-28T06:56:47.945Z,971.53
2022-09-28T06:57:47.968Z,971.56
2022-09-28T06:58:47.923Z,971.58
2022-09-28T06:59:47.935Z,971.58
2022-09-28T07:00:47.961Z,971.58
2022-09-28T07:01:47.901Z,971.65
2022-09-28T07:02:48.070Z,971.66
2022-09-28T07:03:49.687Z,971.64
2022-09-28T07:04:47.883Z,971.71
2022-09-28T07:05:47.876Z,971.70
2022-09-28T07:06:47.890Z,971.73
2022-09-28T07:07:49.616Z,971.76
2022-09-28T07:08:53.690Z,971.71
2022-09-28T07:09:52.341Z,971.77
2022-09-28T07:10:49.838Z,971.80
2022-09-28T07:11:47.825Z,971.80
2022-09-28T07:12:47.821Z,971.77
2022-09-28T07:13:51.231Z,971.84
2022-09-28T07:14:49.313Z,971.81
2022-09-28T07:15:47.826Z,971.85
2022-09-28T07:17:11.728Z,971.88
2022-09-28T07:18:00.425Z,971.87
2022-09-28T07:18:49.793Z,971.94
2022-09-28T07:19:47.763Z,971.90
2022-09-28T07:20:54.271Z,971.90
2022-09-28T07:22:00.224Z,971.92
2022-09-28T07:22:49.739Z,971.93
2022-09-28T07:23:53.506Z,972.01
2022-09-28T07:24:51.706Z,971.99
2022-09-28T07:25:49.676Z,972.01
2022-09-28T07:26:47.714Z,972.05
2022-09-28T07:27:47.694Z,972.04
2022-09-28T07:28:49.185Z,972.03
2022-09-28T07:29:48.612Z,972.07
2022-09-28T07:30:47.732Z,972.04
2022-09-28T07:31:47.675Z,972.07
2022-09-28T07:32:47.664Z,972.04
2022-09-28T07:33:47.660Z,972.07
2022-09-28T07:34:47.650Z,972.05
2022-09-28T07:35:47.642Z,972.12
2022-09-28T07:36:47.660Z,972.14
2022-09-28T07:37:47.624Z,972.14
2022-09-28T07:38:47.608Z,972.16
2022-09-28T07:39:47.613Z,972.16
2022-09-28T07:40:48.570Z,972.22
2022-09-28T07:41:47.583Z,972.19
2022-09-28T07:42:47.566Z,972.20
2022-09-28T07:43:47.572Z,972.22
2022-09-28T07:44:47.556Z,972.20
2022-09-28T07:45:47.806Z,972.28
2022-09-28T07:46:47.568Z,972.28
2022-09-28T07:47:47.540Z,972.32
2022-09-28T07:48:47.525Z,972.31
2022-09-28T07:49:47.523Z,972.37
2022-09-28T07:50:47.516Z,972.37
2022-09-28T07:51:47.530Z,972.39
2022-09-28T07:52:47.493Z,972.35
2022-09-28T07:53:47.484Z,972.37
2022-09-28T07:54:48.121Z,972.43
2022-09-28T07:55:47.524Z,972.43
2022-09-28T07:56:47.487Z,972.38
2022-09-28T07:57:48.473Z,972.39
2022-09-28T07:58:47.463Z,972.42
2022-09-28T07:59:47.436Z,972.48
2022-09-28T08:00:47.665Z,972.47
2022-09-28T08:01:47.528Z,972.50
2022-09-28T08:02:47.479Z,972.48
2022-09-28T08:03:47.409Z,972.54
2022-09-28T08:04:47.437Z,972.46
2022-09-28T08:05:47.541Z,972.49
2022-09-28T08:06:47.416Z,972.51
2022-09-28T08:07:47.419Z,972.50
2022-09-28T08:08:47.378Z,972.47
2022-09-28T08:09:47.465Z,972.53
2022-09-28T08:10:47.722Z,972.56
2022-09-28T08:11:47.366Z,972.55
2022-09-28T08:12:47.349Z,972.55
2022-09-28T08:13:47.347Z,972.58
2022-09-28T08:14:47.331Z,972.60
2022-09-28T08:15:48.125Z,972.58
2022-09-28T08:16:49.556Z,972.57
2022-09-28T08:17:48.127Z,972.57
2022-09-28T08:18:49.204Z,972.65
2022-09-28T08:19:48.641Z,972.59
2022-09-28T08:20:51.313Z,972.59
2022-09-28T08:21:49.269Z,972.58
2022-09-28T08:22:48.214Z,972.62
2022-09-28T08:23:47.558Z,972.63
2022-09-28T08:24:48.135Z,972.60
2022-09-28T08:25:48.257Z,972.59
2022-09-28T08:26:47.234Z,972.64
2022-09-28T08:27:47.247Z,972.63
2022-09-28T08:28:48.129Z,972.64
2022-09-28T08:29:47.226Z,972.71
2022-09-28T08:30:47.315Z,972.73
2022-09-28T08:31:51.132Z,972.68
2022-09-28T08:32:47.284Z,972.73
2022-09-28T08:33:47.173Z,972.71
2022-09-28T08:34:47.180Z,972.76
2022-09-28T08:35:47.187Z,972.68
2022-09-28T08:36:47.156Z,972.78
2022-09-28T08:37:51.370Z,972.70
2022-09-28T08:38:49.130Z,972.78
2022-09-28T08:39:48.626Z,972.74
2022-09-28T08:40:47.214Z,972.77
2022-09-28T08:42:54.209Z,972.82
2022-09-28T08:43:54.243Z,972.85
2022-09-28T08:44:53.385Z,972.86
2022-09-28T08:45:54.497Z,972.81
2022-09-28T08:46:54.462Z,972.81
2022-09-28T08:47:54.457Z,972.81
2022-09-28T08:49:13.404Z,972.80
2022-09-28T08:49:56.433Z,972.82
2022-09-28T08:50:55.445Z,972.82
2022-09-28T08:51:54.418Z,972.86
2022-09-28T08:52:55.348Z,972.89
2022-09-28T08:53:54.406Z,972.92
2022-09-28T08:54:56.330Z,972.97
2022-09-28T08:55:54.393Z,972.89
2022-09-28T08:56:54.376Z,972.92
2022-09-28T08:57:54.370Z,972.93
2022-09-28T08:58:56.325Z,972.91
2022-09-28T08:59:54.347Z,972.94
2022-09-28T09:00:54.422Z,972.94
2022-09-28T09:03:00.695Z,972.96
2022-09-28T09:04:00.659Z,973.01
2022-09-28T09:05:00.664Z,973.00
2022-09-28T09:06:01.738Z,972.97
2022-09-28T09:07:01.750Z,972.98
2022-09-28T09:08:01.727Z,973.00
2022-09-28T09:09:01.720Z,972.92
2022-09-28T09:10:01.723Z,972.96
2022-09-28T09:11:01.719Z,973.00
2022-09-28T09:12:01.694Z,972.96
2022-09-28T09:13:01.692Z,972.97
2022-09-28T09:14:01.697Z,973.02
2022-09-28T09:15:02.567Z,973.00
2022-09-28T09:16:01.681Z,973.01
2022-09-28T09:17:01.712Z,972.99
2022-09-28T09:18:01.643Z,973.05
2022-09-28T09:19:01.662Z,973.00
2022-09-28T09:20:01.624Z,973.07
2022-09-28T09:21:01.627Z,973.05
2022-09-28T09:22:01.638Z,973.02
2022-09-28T09:23:01.624Z,973.09
2022-09-28T09:24:02.484Z,973.09
2022-09-28T09:25:01.606Z,973.11
2022-09-28T09:26:02.482Z,973.09
2022-09-28T09:27:01.574Z,973.04
2022-09-28T09:28:01.574Z,973.02
2022-09-28T09:29:01.607Z,973.10
2022-09-28T09:30:01.543Z,973.15
2022-09-28T09:31:02.792Z,973.21
2022-09-28T09:32:01.527Z,973.22
2022-09-28T09:33:01.513Z,973.14
2022-09-28T09:34:01.503Z,973.25
2022-09-28T09:35:01.497Z,973.20
2022-09-28T09:36:01.500Z,973.19
2022-09-28T09:37:01.504Z,973.22
2022-09-28T09:38:01.474Z,973.22
2022-09-28T09:39:01.492Z,973.34
2022-09-28T09:40:01.460Z,973.33
2022-09-28T09:41:03.184Z,973.38
2022-09-28T09:42:02.163Z,973.33
2022-09-28T09:43:01.444Z,973.37
2022-09-28T09:44:01.446Z,973.37
2022-09-28T09:45:03.072Z,973.37
2022-09-28T09:46:01.478Z,973.34
2022-09-28T09:47:01.434Z,973.36
2022-09-28T09:48:01.988Z,973.37
2022-09-28T09:49:01.438Z,973.35
2022-09-28T09:50:06.781Z,973.35
2022-09-28T09:51:08.115Z,973.39
2022-09-28T09:52:01.455Z,973.37
2022-09-28T09:53:01.368Z,973.38
2022-09-28T09:54:03.497Z,973.38
2022-09-28T09:55:01.373Z,973.38
2022-09-28T09:56:01.342Z,973.43
2022-09-28T09:57:01.367Z,973.40
2022-09-28T09:58:01.338Z,973.39
2022-09-28T09:59:03.119Z,973.47
2022-09-28T10:00:06.282Z,973.57
2022-09-28T10:01:01.380Z,973.46
2022-09-28T10:02:01.339Z,973.57
2022-09-28T10:03:01.992Z,973.55
2022-09-28T10:04:01.279Z,973.61
2022-09-28T10:05:02.011Z,973.57
2022-09-28T10:06:02.266Z,973.57
2022-09-28T10:07:01.252Z,973.58
2022-09-28T10:08:01.256Z,973.61
2022-09-28T10:09:01.234Z,973.58
2022-09-28T10:10:01.230Z,973.61
2022-09-28T10:11:01.227Z,973.56
2022-09-28T10:12:01.217Z,973.54
2022-09-28T10:13:01.204Z,973.59
2022-09-28T10:14:01.199Z,973.53
2022-09-28T10:15:01.201Z,973.55
2022-09-28T10:16:01.172Z,973.54
2022-09-28T10:17:01.220Z,973.47
2022-09-28T10:18:01.172Z,973.46
2022-09-28T10:19:01.163Z,973.42
2022-09-28T10:20:01.148Z,973.46
2022-09-28T10:21:01.143Z,973.45
2022-09-28T10:22:02.134Z,973.55
2022-09-28T10:23:02.998Z,973.48
2022-09-28T10:24:01.133Z,973.50
2022-09-28T10:25:01.121Z,973.51
2022-09-28T10:26:03.003Z,973.50
2022-09-28T10:27:01.105Z,973.47
2022-09-28T10:28:03.005Z,973.50
2022-09-28T10:29:01.220Z,973.46
2022-09-28T10:30:01.117Z,973.50
2022-09-28T10:31:01.183Z,973.50
2022-09-28T10:32:01.084Z,973.45
2022-09-28T10:33:01.061Z,973.45
2022-09-28T10:34:01.031Z,973.42
2022-09-28T10:35:02.581Z,973.42
2022-09-28T10:36:01.022Z,973.46
2022-09-28T10:37:01.029Z,973.49
2022-09-28T10:38:01.006Z,973.51
2022-09-28T10:39:00.993Z,973.42
2022-09-28T10:40:00.997Z,973.48
2022-09-28T10:41:01.094Z,973.47
2022-09-28T10:42:00.991Z,973.48
2022-09-28T10:43:00.962Z,973.50
2022-09-28T10:44:00.948Z,973.49
2022-09-28T10:45:00.976Z,973.51
2022-09-28T10:46:01.007Z,973.52
2022-09-28T10:47:00.935Z,973.53
2022-09-28T10:48:00.930Z,973.51
2022-09-28T10:49:00.911Z,973.55
2022-09-28T10:50:00.912Z,973.51
2022-09-28T10:51:00.906Z,973.60
2022-09-28T10:52:00.913Z,973.54
2022-09-28T10:53:00.890Z,973.59
2022-09-28T10:54:00.902Z,973.58
2022-09-28T10:55:06.519Z,973.58
2022-09-28T10:56:00.869Z,973.64
2022-09-28T10:57:00.871Z,973.54
2022-09-28T10:59:07.920Z,973.65
2022-09-28T11:00:07.929Z,973.68
2022-09-28T11:01:07.991Z,973.62
2022-09-28T11:02:07.935Z,973.62
2022-09-28T11:03:09.562Z,973.62
2022-09-28T11:04:08.981Z,973.56
2022-09-28T11:05:08.971Z,973.60
2022-09-28T11:06:09.652Z,973.56
2022-09-28T11:07:08.954Z,973.63
2022-09-28T11:08:08.946Z,973.56
2022-09-28T11:09:08.937Z,973.58
2022-09-28T11:10:08.939Z,973.54
2022-09-28T11:11:11.067Z,973.51
2022-09-28T11:12:08.928Z,973.53
2022-09-28T11:13:08.921Z,973.57
2022-09-28T11:14:09.584Z,973.67
2022-09-28T11:15:08.897Z,973.63
2022-09-28T11:16:09.659Z,973.63
2022-09-28T11:17:08.916Z,973.64
2022-09-28T11:18:11.609Z,973.67
2022-09-28T11:19:09.568Z,973.59
2022-09-28T11:20:08.868Z,973.62
2022-09-28T11:21:13.003Z,973.65
2022-09-28T11:22:12.332Z,973.61
2022-09-28T11:23:09.848Z,973.64
2022-09-28T11:24:08.837Z,973.67
2022-09-28T11:25:09.661Z,973.71
2022-09-28T11:26:08.833Z,973.65
2022-09-28T11:27:08.798Z,973.60
2022-09-28T11:28:08.800Z,973.66
2022-09-28T11:29:08.792Z,973.65
2022-09-28T11:30:08.778Z,973.67
2022-09-28T11:31:08.818Z,973.62
2022-09-28T11:32:12.435Z,973.69
2022-09-28T11:33:09.785Z,973.68
2022-09-28T11:34:08.744Z,973.72
2022-09-28T11:35:08.733Z,973.73
2022-09-28T11:36:09.580Z,973.70
2022-09-28T11:37:08.720Z,973.68
2022-09-28T11:38:09.677Z,973.73
2022-09-28T11:39:11.181Z,973.69
2022-09-28T11:40:08.692Z,973.67
2022-09-28T11:41:08.697Z,973.69
2022-09-28T11:42:11.884Z,973.69
2022-09-28T11:43:10.710Z,973.73
2022-09-28T11:44:11.284Z,973.71
2022-09-28T11:45:08.654Z,973.73
2022-09-28T11:46:09.698Z,973.75
2022-09-28T11:47:08.684Z,973.81
2022-09-28T11:48:08.629Z,973.80
2022-09-28T11:49:08.625Z,973.80
2022-09-28T11:50:08.612Z,973.80
2022-09-28T11:51:17.179Z,973.81
2022-09-28T11:52:16.040Z,973.82
2022-09-28T11:53:13.094Z,973.81
2022-09-28T11:54:18.700Z,973.85
2022-09-28T11:55:09.288Z,973.80
2022-09-28T11:56:09.150Z,973.85
2022-09-28T11:57:31.595Z,973.88
2022-09-28T11:59:15.398Z,973.85
2022-09-28T12:00:16.493Z,973.87
2022-09-28T12:01:18.858Z,973.85
2022-09-28T12:02:17.563Z,973.88
2022-09-28T12:03:16.675Z,973.85
2022-09-28T12:04:16.550Z,973.86
2022-09-28T12:05:20.664Z,973.84
2022-09-28T12:06:17.442Z,973.90
2022-09-28T12:07:18.347Z,973.89
2022-09-28T12:08:16.420Z,973.90
2022-09-28T12:09:18.438Z,973.90
2022-09-28T12:10:17.217Z,973.89
2022-09-28T12:11:16.394Z,973.89
2022-09-28T12:12:24.289Z,973.86
2022-09-28T12:13:19.481Z,973.82
2022-09-28T12:14:18.335Z,973.91
2022-09-28T12:17:04.373Z,973.86
2022-09-28T12:17:41.817Z,973.89
2022-09-28T12:18:39.825Z,973.90
2022-09-28T12:19:43.677Z,973.89
2022-09-28T12:20:42.752Z,973.96
2022-09-28T12:21:39.807Z,973.88
2022-09-28T12:22:40.792Z,973.90
2022-09-28T12:23:39.780Z,973.86
2022-09-28T12:24:39.763Z,973.91
2022-09-28T12:25:39.763Z,973.92
2022-09-28T12:26:39.770Z,973.94
2022-09-28T12:27:39.739Z,973.90
2022-09-28T12:29:46.011Z,973.93
2022-09-28T12:30:46.070Z,973.88
2022-09-28T12:31:47.111Z,973.92
2022-09-28T12:32:47.081Z,973.91
2022-09-28T12:33:47.078Z,973.90
2022-09-28T12:34:47.082Z,973.93
2022-09-28T12:35:47.062Z,973.89
2022-09-28T12:36:48.874Z,973.87
2022-09-28T12:37:47.048Z,973.99